Flight Track Log - Related Links

Times and Time Zones

All times are in EDT time to prevent confusion due to time zone crossing. See the AAL2378 flight status page for this flight to view local times or setup timezone preferences in your user account.

Time Position Orientation Groundspeed Altitude Reporting Facility
EDT Latitude Longitude Course Direction KTS MPH feet Rate Location/Type
Sat 02:15:29 PM 33.9442 -118.4628 270° West 178 205 1,400  Level Los Angeles Center
Sat 02:16:31 PM 33.9375 -118.5383 264° West 226 260 2,800 2,032 Climbing Los Angeles Center
Sat 02:17:00 PM 34.0243 -118.7343 285° West  Level FlightAware Approximate
Sat 02:17:33 PM 33.9267 -118.6331 262° West 260 299 5,600  Level Los Angeles Center
Sat 02:18:00 PM 34.0495 -118.8478 285° West  Level FlightAware Approximate
Sat 02:18:35 PM 33.9142 -118.7275 261° West 280 322 7,900  Level Los Angeles Center
Sat 02:19:00 PM 34.0888 -118.9551 287° West  Level FlightAware Approximate
Sat 02:19:37 PM 33.9014 -118.8136 260° West 281 323 10,200  Level Los Angeles Center
Sat 02:20:00 PM 34.1167 -119.0612 270° West  Level FlightAware Approximate
Sat 02:20:39 PM 33.8881 -118.9175 261° West 316 364 11,300  Level Los Angeles Center
Sat 02:21:41 PM 33.8714 -119.0597 262° West 355 409 13,600 2,256 Climbing Los Angeles Center
Sat 02:22:44 PM 33.9150 -119.1639 297° West 377 434 16,000 2,304 Climbing Los Angeles Center
Sat 02:23:46 PM 33.9967 -119.2450 321° Northwest 379 436 18,400 2,323 Climbing Los Angeles Center
Sat 02:24:48 PM 34.0817 -119.3342 319° Northwest 385 443 20,800 2,032 Climbing Los Angeles Center
Sat 02:25:50 PM 34.1636 -119.4186 320° Northwest 398 458 22,600 1,790 Climbing Los Angeles Center
Sat 02:26:52 PM 34.2519 -119.5089 320° Northwest 412 474 24,500 1,887 Climbing Los Angeles Center
Sat 02:27:54 PM 34.3594 -119.6236 319° Northwest 428 493 26,500 1,645 Climbing Los Angeles Center
Sat 02:28:56 PM 34.4522 -119.7233 318° Northwest 440 506 27,900 1,355 Climbing Los Angeles Center
Sat 02:29:58 PM 34.5469 -119.8267 318° Northwest 455 524 29,300 968 Climbing Los Angeles Center
Sat 02:31:00 PM 34.6531 -119.9369 319° Northwest 453 521 29,900 288 Climbing Los Angeles Center
Sat 02:32:03 PM 34.7364 -120.0286 318° Northwest 410 472 29,900 48 Level Los Angeles Center
Sat 02:33:05 PM 34.8203 -120.1194 318° Northwest 418 481 30,000 48 Climbing Los Angeles Center
Sat 02:34:07 PM 34.9075 -120.2136 318° Northwest 421 484 30,000  Level Los Angeles Center
Sat 02:35:09 PM 34.9956 -120.3111 318° Northwest 431 496 30,000  Level Los Angeles Center
Sat 02:36:11 PM 35.1056 -120.4333 318° Northwest 448 516 30,000 -48 Level Los Angeles Center
Sat 02:37:13 PM 35.1975 -120.5350 318° Northwest 450 518 29,900  Descending Los Angeles Center
Sat 02:38:15 PM 35.2894 -120.6381 318° Northwest 451 519 30,000 48 Climbing Los Angeles Center
Sat 02:39:17 PM 35.3872 -120.7322 322° Northwest 448 516 30,000 -48 Level Los Angeles Center
Sat 02:40:20 PM 35.4886 -120.8222 324° Northwest 449 517 29,900  Descending Los Angeles Center
Sat 02:41:22 PM 35.6083 -120.9292 324° Northwest 446 513 30,000 48 Climbing Los Angeles Center
Sat 02:42:24 PM 35.7050 -121.0147 324° Northwest 446 513 30,000  Level Los Angeles Center
Sat 02:43:26 PM 35.8056 -121.1039 324° Northwest 445 512 30,000 -48 Level Los Angeles Center
Sat 02:44:28 PM 35.9056 -121.1956 323° Northwest 445 512 29,900  Descending Los Angeles Center
Sat 02:45:54 PM 36.0664 -121.3397 324° Northwest 445 512 30,000 41 Climbing Oakland Center
Sat 02:46:56 PM 36.1669 -121.4303 324° Northwest 444 511 30,000 -581 Level Oakland Center
Sat 02:47:58 PM 36.2664 -121.5217 323° Northwest 445 512 28,800 -1,805 Descending Oakland Center
Sat 02:48:59 PM 36.3625 -121.6094 324° Northwest 432 497 26,300 -2,341 Descending Oakland Center
Sat 02:50:01 PM 36.4558 -121.6950 324° Northwest 423 487 24,000 -2,226 Descending Oakland Center
Sat 02:51:03 PM 36.5456 -121.7756 324° Northwest 403 464 21,700 -2,177 Descending Oakland Center
Sat 02:52:05 PM 36.6342 -121.8453 328° Northwest 376 433 19,500 -2,371 Descending Oakland Center
Sat 02:53:07 PM 36.7492 -121.8994 339° North 368 423 16,800 -2,390 Descending Oakland Center
Sat 02:54:08 PM 36.8383 -121.9461 337° Northwest 355 409 14,600 -2,049 Descending Oakland Center
Sat 02:55:10 PM 36.9242 -121.9906 338° Northwest 340 391 12,600 -1,742 Descending Oakland Center
Sat 02:56:12 PM 37.0086 -122.0361 337° Northwest 335 386 11,000 -1,073 Descending Oakland Center
Sat 02:57:13 PM 37.0933 -122.0567 349° North 316 364 10,400 -537 Descending Oakland Center
Sat 02:58:15 PM 37.1733 -122.0767 349° North 300 345 9,900 -726 Descending Oakland Center
Sat 02:59:17 PM 37.2478 -122.0989 347° North 281 323 8,900 -1,645 Descending Oakland Center
Sat 03:00:19 PM 37.3372 -122.1217 349° North 278 320 6,500 -1,512 Descending Oakland Center
Sat 03:01:20 PM 37.4094 -122.1392 349° North 271 312 5,800 -927 Descending Oakland Center
Sat 03:02:22 PM 37.4733 -122.1575 347° North 244 281 4,600 -1,306 Descending Oakland Center
Sat 03:03:24 PM 37.5372 -122.1808 344° North 241 277 3,100 -1,171 Descending Oakland Center
Sat 03:04:25 PM 37.5669 -122.2447 300° West 219 252 2,200 -878 Descending Oakland Center
Sat 03:05:27 PM 37.5856 -122.2983 294° West 190 219 1,300 -871 Descending Oakland Center
Sat 03:06:29 PM 37.6028 -122.3397 298° West 159 183 400 -871 Descending Oakland Center

Login

Don't have an account? Register now (free) for customized features, flight alerts, and more!